createdAt,value
2022-09-15T00:01:23.128Z,1.85
2022-09-15T00:03:50.812Z,2.78
2022-09-15T00:06:20.144Z,1.92
2022-09-15T00:08:47.199Z,3.00
2022-09-15T00:11:25.652Z,2.60
2022-09-15T00:13:53.239Z,2.80
2022-09-15T00:16:22.656Z,2.70
2022-09-15T00:18:49.794Z,3.10
2022-09-15T00:21:21.135Z,2.83
2022-09-15T00:23:48.772Z,2.65
2022-09-15T00:26:17.407Z,2.80
2022-09-15T00:28:44.753Z,2.38
2022-09-15T00:31:17.706Z,2.85
2022-09-15T00:33:47.688Z,2.15
2022-09-15T00:36:15.131Z,3.13
2022-09-15T00:38:44.323Z,3.10
2022-09-15T00:41:12.363Z,2.63
2022-09-15T00:43:47.670Z,2.45
2022-09-15T00:46:16.202Z,2.38
2022-09-15T00:48:47.734Z,2.30
2022-09-15T00:51:19.376Z,1.60
2022-09-15T00:53:47.585Z,2.05
2022-09-15T00:56:15.071Z,1.83
2022-09-15T00:58:44.991Z,2.20
2022-09-15T01:01:13.340Z,1.88
2022-09-15T01:06:13.522Z,1.83
2022-09-15T01:08:44.323Z,1.90
2022-09-15T01:11:11.737Z,1.80
2022-09-15T01:13:40.615Z,1.90
2022-09-15T01:16:32.139Z,1.92
2022-09-15T01:19:08.294Z,2.20
2022-09-15T01:21:44.324Z,1.83
2022-09-15T01:24:17.323Z,1.63
2022-09-15T01:27:18.461Z,2.03
2022-09-15T01:29:59.369Z,2.08
2022-09-15T01:32:57.039Z,1.58
2022-09-15T01:35:41.495Z,1.20
2022-09-15T01:38:08.500Z,1.65
2022-09-15T01:40:41.509Z,1.20
2022-09-15T01:43:10.077Z,1.75
2022-09-15T01:45:39.403Z,2.40
2022-09-15T01:48:07.424Z,1.80
2022-09-15T01:50:36.633Z,2.15
2022-09-15T01:53:06.801Z,1.55
2022-09-15T01:55:40.025Z,1.52
2022-09-15T01:58:11.411Z,2.00
2022-09-15T02:00:42.249Z,2.28
2022-09-15T02:03:19.377Z,2.65
2022-09-15T02:05:53.540Z,2.03
2022-09-15T02:08:32.537Z,1.77
2022-09-15T02:11:32.795Z,2.17
2022-09-15T02:14:20.004Z,2.10
2022-09-15T02:16:53.095Z,1.95
2022-09-15T02:19:32.965Z,1.90
2022-09-15T02:22:08.036Z,1.30
2022-09-15T02:24:39.773Z,1.90
2022-09-15T02:27:10.047Z,0.88
2022-09-15T02:29:37.767Z,2.03
2022-09-15T02:32:07.566Z,1.52
2022-09-15T02:34:37.892Z,1.65
2022-09-15T02:37:05.853Z,1.00
2022-09-15T02:39:34.948Z,1.52
2022-09-15T02:42:02.655Z,1.60
2022-09-15T02:44:31.987Z,1.63
2022-09-15T02:47:00.355Z,1.35
2022-09-15T02:49:27.477Z,1.50
2022-09-15T02:51:54.549Z,0.95
2022-09-15T02:54:23.419Z,1.23
2022-09-15T02:56:50.604Z,1.13
2022-09-15T02:59:17.627Z,1.40
2022-09-15T03:01:44.943Z,1.20
2022-09-15T03:04:12.206Z,1.90
2022-09-15T03:06:39.435Z,1.00
2022-09-15T03:09:07.956Z,1.02
2022-09-15T03:11:35.421Z,0.75
2022-09-15T03:14:03.980Z,0.95
2022-09-15T03:16:31.945Z,1.63
2022-09-15T03:19:01.669Z,0.93
2022-09-15T03:21:30.642Z,1.15
2022-09-15T03:23:58.755Z,0.60
2022-09-15T03:26:26.175Z,1.23
2022-09-15T03:28:53.451Z,1.20
2022-09-15T03:31:24.501Z,1.25
2022-09-15T03:33:54.717Z,0.77
2022-09-15T03:36:21.763Z,1.30
2022-09-15T03:38:48.815Z,1.35
2022-09-15T03:41:15.893Z,0.90
2022-09-15T03:43:43.248Z,0.88
2022-09-15T03:46:12.004Z,1.40
2022-09-15T03:48:40.489Z,1.20
2022-09-15T03:53:39.180Z,1.10
2022-09-15T03:56:14.592Z,1.55
2022-09-15T03:58:41.716Z,1.50
2022-09-15T04:01:09.265Z,1.38
2022-09-15T04:03:43.201Z,1.20
2022-09-15T04:06:12.677Z,0.90
2022-09-15T04:08:41.663Z,0.93
2022-09-15T04:11:09.431Z,1.17
2022-09-15T04:13:37.140Z,1.10
2022-09-15T04:16:05.973Z,1.38
2022-09-15T04:18:33.333Z,1.20
2022-09-15T04:21:01.657Z,0.90
2022-09-15T04:23:29.007Z,1.05
2022-09-15T04:25:59.884Z,0.90
2022-09-15T04:28:27.383Z,0.80
2022-09-15T04:30:55.320Z,1.02
2022-09-15T04:33:23.262Z,1.10
2022-09-15T04:35:50.505Z,1.48
2022-09-15T04:38:17.576Z,1.20
2022-09-15T04:40:44.660Z,0.90
2022-09-15T04:43:11.860Z,0.95
2022-09-15T04:45:38.903Z,1.05
2022-09-15T04:48:06.134Z,0.75
2022-09-15T04:50:33.845Z,0.90
2022-09-15T04:53:00.905Z,1.27
2022-09-15T04:55:28.034Z,1.15
2022-09-15T04:57:58.571Z,1.05
2022-09-15T05:00:27.030Z,0.90
2022-09-15T05:02:54.120Z,0.88
2022-09-15T05:05:21.204Z,0.77
2022-09-15T05:07:48.743Z,1.00
2022-09-15T05:10:17.693Z,0.85
2022-09-15T05:12:46.439Z,1.05
2022-09-15T05:15:13.612Z,0.57
2022-09-15T05:17:40.695Z,1.10
2022-09-15T05:20:07.945Z,0.80
2022-09-15T05:22:39.516Z,1.20
2022-09-15T05:25:08.892Z,1.05
2022-09-15T05:27:36.073Z,1.20
2022-09-15T05:30:31.819Z,1.00
2022-09-15T05:32:52.423Z,0.95
2022-09-15T05:35:19.957Z,0.88
2022-09-15T05:37:47.219Z,0.90
2022-09-15T05:40:15.216Z,1.13
2022-09-15T05:42:42.343Z,1.20
2022-09-15T05:45:09.685Z,1.13
2022-09-15T05:47:36.868Z,0.93
2022-09-15T05:50:06.035Z,1.10
2022-09-15T05:52:33.067Z,1.25
2022-09-15T05:55:00.118Z,1.38
2022-09-15T05:57:27.737Z,1.60
2022-09-15T05:59:55.177Z,1.38
2022-09-15T06:02:23.974Z,1.63
2022-09-15T06:04:51.741Z,1.23
2022-09-15T06:07:19.255Z,1.02
2022-09-15T06:09:46.427Z,1.40
2022-09-15T06:12:13.656Z,0.90
2022-09-15T06:14:43.423Z,1.02
2022-09-15T06:17:10.523Z,1.00
2022-09-15T06:19:37.674Z,1.00
2022-09-15T06:22:04.855Z,1.25
2022-09-15T06:24:32.117Z,0.98
2022-09-15T06:26:59.256Z,1.00
2022-09-15T06:29:26.369Z,0.90
2022-09-15T06:31:53.771Z,1.30
2022-09-15T06:34:21.204Z,1.20
2022-09-15T06:36:50.191Z,1.00
2022-09-15T06:39:17.441Z,1.00
2022-09-15T06:42:01.836Z,1.35
2022-09-15T06:44:30.388Z,0.90
2022-09-15T06:46:57.457Z,1.30
2022-09-15T06:49:25.991Z,1.00
2022-09-15T06:51:53.163Z,1.02
2022-09-15T06:54:20.296Z,1.10
2022-09-15T06:56:48.509Z,1.05
2022-09-15T06:59:16.562Z,0.80
2022-09-15T07:01:44.109Z,1.13
2022-09-15T07:04:11.485Z,0.90
2022-09-15T07:06:39.411Z,1.10
2022-09-15T07:09:07.009Z,0.80
2022-09-15T07:11:34.271Z,0.82
2022-09-15T07:14:01.752Z,1.10
2022-09-15T07:16:28.899Z,0.93
2022-09-15T07:18:57.470Z,1.10
2022-09-15T07:21:24.828Z,1.23
2022-09-15T07:23:52.301Z,0.95
2022-09-15T07:26:23.942Z,1.02
2022-09-15T07:28:58.587Z,2.05
2022-09-15T07:31:27.224Z,1.48
2022-09-15T07:33:55.219Z,1.27
2022-09-15T07:36:22.882Z,1.67
2022-09-15T07:38:50.941Z,1.20
2022-09-15T07:41:22.493Z,0.90
2022-09-15T07:43:54.063Z,0.80
2022-09-15T07:46:23.373Z,0.95
2022-09-15T07:48:51.640Z,1.20
2022-09-15T07:51:19.014Z,1.10
2022-09-15T07:53:46.800Z,1.00
2022-09-15T07:56:16.161Z,1.15
2022-09-15T07:58:43.300Z,0.98
2022-09-15T08:01:12.702Z,1.10
2022-09-15T08:03:41.499Z,0.82
2022-09-15T08:06:08.725Z,1.10
2022-09-15T08:08:39.664Z,1.00
2022-09-15T08:11:12.191Z,0.98
2022-09-15T08:13:42.498Z,1.15
2022-09-15T08:16:14.096Z,1.23
2022-09-15T08:18:42.463Z,0.80
2022-09-15T08:21:11.229Z,1.10
2022-09-15T08:23:38.650Z,0.77
2022-09-15T08:26:13.651Z,1.00
2022-09-15T08:28:41.712Z,0.88
2022-09-15T08:31:09.628Z,1.48
2022-09-15T08:33:36.788Z,0.80
2022-09-15T08:36:05.495Z,0.88
2022-09-15T08:38:34.567Z,0.93
2022-09-15T08:41:06.098Z,0.80
2022-09-15T08:43:39.551Z,0.93
2022-09-15T08:46:08.392Z,1.05
2022-09-15T08:48:44.550Z,0.70
2022-09-15T08:51:16.653Z,0.93
2022-09-15T08:53:47.196Z,0.80
2022-09-15T08:56:18.858Z,0.93
2022-09-15T08:58:47.505Z,0.50
2022-09-15T09:01:20.600Z,0.70
2022-09-15T09:03:53.855Z,0.70
2022-09-15T09:06:23.073Z,0.70
2022-09-15T09:09:09.042Z,0.98
2022-09-15T09:11:56.914Z,0.70
2022-09-15T09:14:32.873Z,0.80
2022-09-15T09:17:29.368Z,0.63
2022-09-15T09:19:59.221Z,0.80
2022-09-15T09:22:30.479Z,0.60
2022-09-15T09:24:58.826Z,0.65
2022-09-15T09:29:56.797Z,1.10
2022-09-15T09:32:25.199Z,0.50
2022-09-15T09:35:09.873Z,0.70
2022-09-15T09:37:37.145Z,0.70
2022-09-15T09:40:06.613Z,0.70
2022-09-15T09:42:37.918Z,0.90
2022-09-15T09:45:06.044Z,0.60
2022-09-15T09:47:35.110Z,0.63
2022-09-15T09:50:02.477Z,0.80
2022-09-15T09:52:39.891Z,2.25
2022-09-15T09:55:19.089Z,1.00
2022-09-15T09:57:49.863Z,1.00
2022-09-15T10:00:32.163Z,0.85
2022-09-15T10:03:11.943Z,1.20
2022-09-15T10:05:40.093Z,1.15
2022-09-15T10:08:07.395Z,0.90
2022-09-15T10:10:35.546Z,2.05
2022-09-15T10:15:34.374Z,1.15
2022-09-15T10:18:01.827Z,1.00
2022-09-15T10:20:32.357Z,1.05
2022-09-15T10:23:03.900Z,0.73
2022-09-15T10:25:55.198Z,0.88
2022-09-15T10:28:23.082Z,0.80
2022-09-15T10:30:59.697Z,0.80
2022-09-15T10:33:28.061Z,1.00
2022-09-15T10:35:56.019Z,0.90
2022-09-15T10:38:31.480Z,0.82
2022-09-15T10:40:58.560Z,0.70
2022-09-15T10:43:25.658Z,0.90
2022-09-15T10:46:02.749Z,0.82
2022-09-15T10:48:29.925Z,0.80
2022-09-15T10:50:59.997Z,1.08
2022-09-15T10:53:36.943Z,1.02
2022-09-15T10:56:10.804Z,0.98
2022-09-15T10:58:56.745Z,0.90
2022-09-15T11:01:30.050Z,0.90
2022-09-15T11:04:00.551Z,0.75
2022-09-15T11:06:40.020Z,0.73
2022-09-15T11:09:09.177Z,1.00
2022-09-15T11:11:42.356Z,0.98
2022-09-15T11:14:09.607Z,1.15
2022-09-15T11:16:47.128Z,0.90
2022-09-15T11:19:26.729Z,0.80
2022-09-15T11:21:58.848Z,0.90
2022-09-15T11:24:44.463Z,0.73
2022-09-15T11:27:22.071Z,0.60
2022-09-15T11:30:24.763Z,0.88
2022-09-15T11:32:58.052Z,0.77
2022-09-15T11:35:31.127Z,0.88
2022-09-15T11:38:12.989Z,1.00
2022-09-15T11:40:42.700Z,0.65
2022-09-15T11:43:29.852Z,0.70
2022-09-15T11:49:12.189Z,1.30
2022-09-15T11:51:43.533Z,0.80
2022-09-15T11:54:18.344Z,0.88
2022-09-15T11:56:47.455Z,0.50
2022-09-15T11:59:20.378Z,0.95
2022-09-15T12:01:51.659Z,1.00
2022-09-15T12:04:31.182Z,0.60
2022-09-15T12:07:09.831Z,0.73
2022-09-15T12:09:39.403Z,0.60
2022-09-15T12:12:13.155Z,0.43
2022-09-15T12:14:42.853Z,0.60
2022-09-15T12:17:15.879Z,1.13
2022-09-15T12:19:49.891Z,0.95
2022-09-15T12:22:31.237Z,0.98
2022-09-15T12:25:19.888Z,0.88
2022-09-15T12:28:06.704Z,0.55
2022-09-15T12:30:41.264Z,0.90
2022-09-15T12:33:43.842Z,1.00
2022-09-15T12:36:29.458Z,0.60
2022-09-15T12:38:56.611Z,1.33
2022-09-15T12:41:25.279Z,0.50
2022-09-15T12:44:12.801Z,0.63
2022-09-15T12:46:40.065Z,0.90
2022-09-15T12:49:17.768Z,0.70
2022-09-15T12:51:49.673Z,0.75
2022-09-15T12:54:22.896Z,1.20
2022-09-15T12:56:52.568Z,0.70
2022-09-15T12:59:25.368Z,0.70
2022-09-15T13:01:53.066Z,2.03
2022-09-15T13:04:28.580Z,1.23
2022-09-15T13:07:14.584Z,1.35
2022-09-15T13:09:46.937Z,1.15
2022-09-15T13:12:16.664Z,2.03
2022-09-15T13:14:48.257Z,0.55
2022-09-15T13:17:17.729Z,1.00
2022-09-15T13:19:46.800Z,1.20
2022-09-15T13:22:30.322Z,0.80
2022-09-15T13:25:02.419Z,1.00
2022-09-15T13:27:42.420Z,1.00
2022-09-15T13:30:09.681Z,0.63
2022-09-15T13:32:41.781Z,0.93
2022-09-15T13:35:32.100Z,1.17
2022-09-15T13:38:19.969Z,0.80
2022-09-15T13:41:06.848Z,1.40
2022-09-15T13:43:37.427Z,1.00
2022-09-15T13:46:31.311Z,1.23
2022-09-15T13:49:13.784Z,1.30
2022-09-15T13:51:42.628Z,1.27
2022-09-15T13:54:17.283Z,1.25
2022-09-15T13:56:45.420Z,1.42
2022-09-15T13:59:17.922Z,1.00
2022-09-15T14:01:47.709Z,1.10
2022-09-15T14:04:19.745Z,1.00
2022-09-15T14:06:48.811Z,0.60
2022-09-15T14:09:15.913Z,0.50
2022-09-15T14:11:44.233Z,0.85
2022-09-15T14:14:31.342Z,0.90
2022-09-15T14:17:08.549Z,1.17
2022-09-15T14:19:39.808Z,1.02
2022-09-15T14:22:23.950Z,0.85
2022-09-15T14:25:02.477Z,0.80
2022-09-15T14:27:31.934Z,1.10
2022-09-15T14:30:04.843Z,0.63
2022-09-15T14:32:35.114Z,0.80
2022-09-15T14:35:06.589Z,0.70
2022-09-15T14:37:34.870Z,0.75
2022-09-15T14:40:03.298Z,0.93
2022-09-15T14:42:35.705Z,0.80
2022-09-15T14:48:03.290Z,0.80
2022-09-15T14:50:33.757Z,1.00
2022-09-15T14:53:08.646Z,0.80
2022-09-15T14:55:48.223Z,0.93
2022-09-15T14:58:18.410Z,0.80
2022-09-15T15:00:52.855Z,0.60
2022-09-15T15:03:26.820Z,1.20
2022-09-15T15:06:02.613Z,0.50
2022-09-15T15:08:46.042Z,0.80
2022-09-15T15:11:17.700Z,0.82
2022-09-15T15:13:46.919Z,0.73
2022-09-15T15:16:44.400Z,0.80
2022-09-15T15:19:41.075Z,1.00
2022-09-15T15:22:12.501Z,0.63
2022-09-15T15:24:44.506Z,0.70
2022-09-15T15:27:30.666Z,1.08
2022-09-15T15:30:00.547Z,1.00
2022-09-15T15:32:27.939Z,0.80
2022-09-15T15:34:56.182Z,0.80
2022-09-15T15:42:35.169Z,1.10
2022-09-15T15:45:02.443Z,0.90
2022-09-15T15:47:31.657Z,0.80
2022-09-15T15:50:13.739Z,0.73
2022-09-15T15:52:41.837Z,0.90
2022-09-15T15:55:09.282Z,0.80
2022-09-15T15:57:39.304Z,0.80
2022-09-15T16:00:32.649Z,0.77
2022-09-15T16:02:59.836Z,1.00
2022-09-15T16:05:27.823Z,0.90
2022-09-15T16:07:56.204Z,0.88
2022-09-15T16:10:25.606Z,0.80
2022-09-15T16:12:52.692Z,1.00
2022-09-15T16:15:21.200Z,1.00
2022-09-15T16:17:48.887Z,0.70
2022-09-15T16:20:16.852Z,0.55
2022-09-15T16:22:44.143Z,0.55
2022-09-15T16:25:31.597Z,0.70
2022-09-15T16:27:59.831Z,0.60
2022-09-15T16:30:30.869Z,0.63
2022-09-15T16:32:58.478Z,0.70
2022-09-15T16:35:30.752Z,0.77
2022-09-15T16:37:58.055Z,0.60
2022-09-15T16:40:25.395Z,0.80
2022-09-15T16:42:52.777Z,0.63
2022-09-15T16:45:22.744Z,0.77
2022-09-15T16:47:52.558Z,0.60
2022-09-15T16:50:19.723Z,0.60
2022-09-15T16:52:46.888Z,0.55
2022-09-15T16:55:19.965Z,0.55
2022-09-15T16:57:47.087Z,0.50
2022-09-15T17:00:14.662Z,0.50
2022-09-15T17:02:43.742Z,0.93
2022-09-15T17:05:24.946Z,0.50
2022-09-15T17:07:56.909Z,0.50
2022-09-15T17:10:24.419Z,0.60
2022-09-15T17:12:51.709Z,0.90
2022-09-15T17:15:22.209Z,0.88
2022-09-15T17:17:52.523Z,0.60
2022-09-15T17:20:20.128Z,0.70
2022-09-15T17:22:47.586Z,0.75
2022-09-15T17:25:33.413Z,0.75
2022-09-15T17:28:00.525Z,0.75
2022-09-15T17:30:29.195Z,0.77
2022-09-15T17:33:04.202Z,0.55
2022-09-15T17:35:35.675Z,0.82
2022-09-15T17:38:06.518Z,1.52
2022-09-15T17:40:34.511Z,0.70
2022-09-15T17:43:02.261Z,0.85
2022-09-15T17:45:31.680Z,0.93
2022-09-15T17:47:59.077Z,0.70
2022-09-15T17:50:28.801Z,0.88
2022-09-15T17:52:56.457Z,0.63
2022-09-15T17:55:31.741Z,1.10
2022-09-15T17:58:00.075Z,0.93
2022-09-15T18:00:28.310Z,0.80
2022-09-15T18:02:56.898Z,0.80
2022-09-15T18:05:28.869Z,0.63
2022-09-15T18:07:59.352Z,1.27
2022-09-15T18:10:28.243Z,0.70
2022-09-15T18:12:57.741Z,0.95
2022-09-15T18:15:26.336Z,0.93
2022-09-15T18:17:54.814Z,1.15
2022-09-15T18:22:49.333Z,0.70
2022-09-15T18:25:27.340Z,0.50
2022-09-15T18:27:54.734Z,0.82
2022-09-15T18:30:22.563Z,0.70
2022-09-15T18:32:49.814Z,1.13
2022-09-15T18:35:18.597Z,0.85
2022-09-15T18:37:46.829Z,0.90
2022-09-15T18:40:15.271Z,0.80
2022-09-15T18:45:10.635Z,0.63
2022-09-15T18:47:37.777Z,0.90
2022-09-15T18:50:07.208Z,0.88
2022-09-15T18:52:36.681Z,0.80
2022-09-15T18:55:05.091Z,0.75
2022-09-15T18:57:38.949Z,0.60
2022-09-15T19:00:08.533Z,1.30
2022-09-15T19:02:38.770Z,0.80
2022-09-15T19:05:06.496Z,0.68
2022-09-15T19:07:33.646Z,0.80
2022-09-15T19:10:01.671Z,0.93
2022-09-15T19:12:28.854Z,1.67
2022-09-15T19:14:57.689Z,0.90
2022-09-15T19:17:24.777Z,1.30
2022-09-15T19:19:52.137Z,0.90
2022-09-15T19:22:19.209Z,0.80
2022-09-15T19:24:46.398Z,1.10
2022-09-15T19:27:17.503Z,1.05
2022-09-15T19:29:45.156Z,0.98
2022-09-15T19:32:13.876Z,1.35
2022-09-15T19:34:44.237Z,1.00
2022-09-15T19:37:16.460Z,1.00
2022-09-15T19:39:46.724Z,1.08
2022-09-15T19:44:47.959Z,0.82
2022-09-15T19:47:15.363Z,0.93
2022-09-15T19:49:42.570Z,0.80
2022-09-15T19:52:12.941Z,0.90
2022-09-15T19:54:40.115Z,1.00
2022-09-15T19:57:07.538Z,1.00
2022-09-15T19:59:35.021Z,0.73
2022-09-15T20:02:02.431Z,0.75
2022-09-15T20:04:30.770Z,0.80
2022-09-15T20:06:58.163Z,0.73
2022-09-15T20:09:27.997Z,0.75
2022-09-15T20:11:55.136Z,0.80
2022-09-15T20:14:22.225Z,1.05
2022-09-15T20:16:49.431Z,0.90
2022-09-15T20:19:16.700Z,0.70
2022-09-15T20:21:50.242Z,1.20
2022-09-15T20:24:18.574Z,1.08
2022-09-15T20:26:47.679Z,1.00
2022-09-15T20:29:14.884Z,0.77
2022-09-15T20:31:42.555Z,1.17
2022-09-15T20:34:09.635Z,1.00
2022-09-15T20:36:38.725Z,1.20
2022-09-15T20:39:13.188Z,1.00
2022-09-15T20:41:41.939Z,1.15
2022-09-15T20:46:38.950Z,1.30
2022-09-15T20:49:09.114Z,1.48
2022-09-15T20:51:38.441Z,1.25
2022-09-15T20:54:07.612Z,1.13
2022-09-15T20:56:35.548Z,1.60
2022-09-15T20:59:02.825Z,1.20
2022-09-15T21:01:36.243Z,1.10
2022-09-15T21:04:08.109Z,1.00
2022-09-15T21:07:07.404Z,0.82
2022-09-15T21:13:04.801Z,0.82
2022-09-15T21:15:32.042Z,1.58
2022-09-15T21:17:59.203Z,1.40
2022-09-15T21:20:26.302Z,1.10
2022-09-15T21:22:54.272Z,1.00
2022-09-15T21:25:21.669Z,1.00
2022-09-15T21:27:49.086Z,1.30
2022-09-15T21:30:16.919Z,1.30
2022-09-15T21:32:44.086Z,1.05
2022-09-15T21:35:11.300Z,1.02
2022-09-15T21:37:39.261Z,1.40
2022-09-15T21:40:06.652Z,1.70
2022-09-15T21:42:34.484Z,1.40
2022-09-15T21:45:01.739Z,1.35
2022-09-15T21:47:28.887Z,1.30
2022-09-15T21:49:56.408Z,1.20
2022-09-15T21:52:23.505Z,1.20
2022-09-15T21:54:50.552Z,1.30
2022-09-15T21:57:17.885Z,1.20
2022-09-15T21:59:45.027Z,1.10
2022-09-15T22:02:12.131Z,1.17
2022-09-15T22:04:39.610Z,0.95
2022-09-15T22:07:07.263Z,0.82
2022-09-15T22:09:34.435Z,0.88
2022-09-15T22:12:03.805Z,0.80
2022-09-15T22:14:31.538Z,0.90
2022-09-15T22:16:59.037Z,0.90
2022-09-15T22:19:26.615Z,0.90
2022-09-15T22:21:53.757Z,1.17
2022-09-15T22:24:20.844Z,1.00
2022-09-15T22:26:47.942Z,0.75
2022-09-15T22:29:16.874Z,0.90
2022-09-15T22:31:43.980Z,1.65
2022-09-15T22:34:11.113Z,0.80
2022-09-15T22:36:39.982Z,0.90
2022-09-15T22:39:07.022Z,0.80
2022-09-15T22:41:36.989Z,1.10
2022-09-15T22:44:06.562Z,1.17
2022-09-15T22:46:33.742Z,1.00
2022-09-15T22:49:00.839Z,1.20
2022-09-15T22:51:27.896Z,0.88
2022-09-15T22:53:57.058Z,0.80
2022-09-15T22:56:26.252Z,1.00
2022-09-15T22:58:53.871Z,0.80
2022-09-15T23:01:22.100Z,0.95
2022-09-15T23:03:52.756Z,1.40
2022-09-15T23:06:20.472Z,0.80
2022-09-15T23:08:54.420Z,1.55
2022-09-15T23:11:21.615Z,0.93
2022-09-15T23:13:48.880Z,0.80
2022-09-15T23:16:16.461Z,1.23
2022-09-15T23:18:43.755Z,1.10
2022-09-15T23:21:11.507Z,1.13
2022-09-15T23:23:39.875Z,1.63
2022-09-15T23:26:08.515Z,1.10
2022-09-15T23:28:35.798Z,1.20
2022-09-15T23:31:04.805Z,1.25
2022-09-15T23:33:32.123Z,1.40
2022-09-15T23:36:00.146Z,1.10
2022-09-15T23:38:27.226Z,1.08
2022-09-15T23:40:56.189Z,1.13
2022-09-15T23:43:23.573Z,0.80
2022-09-15T23:45:51.231Z,0.70
2022-09-15T23:48:18.444Z,0.98
2022-09-15T23:50:45.629Z,0.75
2022-09-15T23:53:14.854Z,0.70
2022-09-15T23:55:41.947Z,0.80
2022-09-15T23:58:09.008Z,0.90
